sensor_id;sensor_type;location;lat;lon;timestamp;temperature;humidity
25188;DHT22;13141;50.414;8.050;2023-04-15T00:00:50;8.00;99.90
25188;DHT22;13141;50.414;8.050;2023-04-15T00:03:16;7.90;99.90
25188;DHT22;13141;50.414;8.050;2023-04-15T00:05:41;7.90;99.90
25188;DHT22;13141;50.414;8.050;2023-04-15T00:08:07;7.90;99.90
25188;DHT22;13141;50.414;8.050;2023-04-15T00:10:33;7.80;99.90
25188;DHT22;13141;50.414;8.050;2023-04-15T00:13:00;7.80;99.90
25188;DHT22;13141;50.414;8.050;2023-04-15T00:15:25;7.70;99.90
25188;DHT22;13141;50.414;8.050;2023-04-15T00:17:51;7.70;99.90
25188;DHT22;13141;50.414;8.050;2023-04-15T00:20:17;7.60;99.90
25188;DHT22;13141;50.414;8.050;2023-04-15T00:22:42;7.60;99.90
25188;DHT22;13141;50.414;8.050;2023-04-15T00:25:08;7.50;99.90
25188;DHT22;13141;50.414;8.050;2023-04-15T00:27:34;7.50;99.90
25188;DHT22;13141;50.414;8.050;2023-04-15T00:30:01;7.50;99.90
25188;DHT22;13141;50.414;8.050;2023-04-15T00:32:26;7.40;99.90
25188;DHT22;13141;50.414;8.050;2023-04-15T00:34:52;7.40;99.90
25188;DHT22;13141;50.414;8.050;2023-04-15T00:37:18;7.40;99.90
25188;DHT22;13141;50.414;8.050;2023-04-15T00:39:43;7.30;99.90
25188;DHT22;13141;50.414;8.050;2023-04-15T00:42:09;7.20;99.90
25188;DHT22;13141;50.414;8.050;2023-04-15T00:44:35;7.10;99.90
25188;DHT22;13141;50.414;8.050;2023-04-15T00:47:03;7.10;99.90
25188;DHT22;13141;50.414;8.050;2023-04-15T00:49:29;7.10;99.90
25188;DHT22;13141;50.414;8.050;2023-04-15T00:51:55;7.10;99.90
25188;DHT22;13141;50.414;8.050;2023-04-15T00:54:21;7.00;99.90
25188;DHT22;13141;50.414;8.050;2023-04-15T00:56:46;7.00;99.90
25188;DHT22;13141;50.414;8.050;2023-04-15T00:59:13;6.90;99.90
25188;DHT22;13141;50.414;8.050;2023-04-15T01:01:39;6.90;99.90
25188;DHT22;13141;50.414;8.050;2023-04-15T01:04:07;7.20;99.90
25188;DHT22;13141;50.414;8.050;2023-04-15T01:06:32;6.90;99.90
25188;DHT22;13141;50.414;8.050;2023-04-15T01:08:58;6.90;99.90
25188;DHT22;13141;50.414;8.050;2023-04-15T01:11:24;6.90;99.90
25188;DHT22;13141;50.414;8.050;2023-04-15T01:13:51;6.80;99.90
25188;DHT22;13141;50.414;8.050;2023-04-15T01:16:17;6.80;99.90
25188;DHT22;13141;50.414;8.050;2023-04-15T01:18:43;6.80;99.90
25188;DHT22;13141;50.414;8.050;2023-04-15T01:21:11;6.70;99.90
25188;DHT22;13141;50.414;8.050;2023-04-15T01:23:37;6.70;99.90
25188;DHT22;13141;50.414;8.050;2023-04-15T01:26:05;6.70;99.90
25188;DHT22;13141;50.414;8.050;2023-04-15T01:28:31;6.70;99.90
25188;DHT22;13141;50.414;8.050;2023-04-15T01:31:07;6.60;99.90
25188;DHT22;13141;50.414;8.050;2023-04-15T01:33:32;6.50;99.90
25188;DHT22;13141;50.414;8.050;2023-04-15T01:35:58;6.50;99.90
25188;DHT22;13141;50.414;8.050;2023-04-15T01:38:25;6.50;99.90
25188;DHT22;13141;50.414;8.050;2023-04-15T01:40:51;6.50;99.90
25188;DHT22;13141;50.414;8.050;2023-04-15T01:43:18;6.40;99.90
25188;DHT22;13141;50.414;8.050;2023-04-15T01:45:43;6.40;99.90
25188;DHT22;13141;50.414;8.050;2023-04-15T01:48:09;6.40;99.90
25188;DHT22;13141;50.414;8.050;2023-04-15T01:50:35;6.40;99.90
25188;DHT22;13141;50.414;8.050;2023-04-15T01:53:00;6.30;99.90
25188;DHT22;13141;50.414;8.050;2023-04-15T01:55:26;6.30;99.90
25188;DHT22;13141;50.414;8.050;2023-04-15T01:57:52;6.30;99.90
25188;DHT22;13141;50.414;8.050;2023-04-15T02:00:19;6.20;99.90
25188;DHT22;13141;50.414;8.050;2023-04-15T02:02:44;6.10;99.90
25188;DHT22;13141;50.414;8.050;2023-04-15T02:05:10;6.10;99.90
25188;DHT22;13141;50.414;8.050;2023-04-15T02:07:35;6.00;99.90
25188;DHT22;13141;50.414;8.050;2023-04-15T02:10:01;6.00;99.90
25188;DHT22;13141;50.414;8.050;2023-04-15T02:12:27;5.90;99.90
25188;DHT22;13141;50.414;8.050;2023-04-15T02:14:52;6.00;99.90
25188;DHT22;13141;50.414;8.050;2023-04-15T02:17:19;6.00;99.90
25188;DHT22;13141;50.414;8.050;2023-04-15T02:19:45;5.90;99.90
25188;DHT22;13141;50.414;8.050;2023-04-15T02:22:12;5.90;99.90
25188;DHT22;13141;50.414;8.050;2023-04-15T02:24:38;5.90;99.90
25188;DHT22;13141;50.414;8.050;2023-04-15T02:27:04;5.90;99.90
25188;DHT22;13141;50.414;8.050;2023-04-15T02:29:30;5.90;99.90
25188;DHT22;13141;50.414;8.050;2023-04-15T02:31:56;5.90;99.90
25188;DHT22;13141;50.414;8.050;2023-04-15T02:34:23;5.80;99.90
25188;DHT22;13141;50.414;8.050;2023-04-15T02:36:49;5.80;99.90
25188;DHT22;13141;50.414;8.050;2023-04-15T02:39:14;5.80;99.90
25188;DHT22;13141;50.414;8.050;2023-04-15T02:41:40;5.70;99.90
25188;DHT22;13141;50.414;8.050;2023-04-15T02:44:06;5.70;99.90
25188;DHT22;13141;50.414;8.050;2023-04-15T02:46:31;5.70;99.90
25188;DHT22;13141;50.414;8.050;2023-04-15T02:48:57;5.70;99.90
25188;DHT22;13141;50.414;8.050;2023-04-15T02:51:24;5.60;99.90
25188;DHT22;13141;50.414;8.050;2023-04-15T02:53:50;5.60;99.90
25188;DHT22;13141;50.414;8.050;2023-04-15T02:56:15;5.60;99.90
25188;DHT22;13141;50.414;8.050;2023-04-15T02:58:42;5.60;99.90
25188;DHT22;13141;50.414;8.050;2023-04-15T03:01:09;5.50;99.90
25188;DHT22;13141;50.414;8.050;2023-04-15T03:03:35;5.50;99.90
25188;DHT22;13141;50.414;8.050;2023-04-15T03:06:00;5.50;99.90
25188;DHT22;13141;50.414;8.050;2023-04-15T03:08:28;5.40;99.90
25188;DHT22;13141;50.414;8.050;2023-04-15T03:10:53;5.40;99.90
25188;DHT22;13141;50.414;8.050;2023-04-15T03:13:20;5.40;99.90
25188;DHT22;13141;50.414;8.050;2023-04-15T03:15:46;5.40;99.90
25188;DHT22;13141;50.414;8.050;2023-04-15T03:18:11;5.40;99.90
25188;DHT22;13141;50.414;8.050;2023-04-15T03:20:37;5.40;99.90
25188;DHT22;13141;50.414;8.050;2023-04-15T03:23:03;5.40;99.90
25188;DHT22;13141;50.414;8.050;2023-04-15T03:25:30;5.30;99.90
25188;DHT22;13141;50.414;8.050;2023-04-15T03:27:56;5.40;99.90
25188;DHT22;13141;50.414;8.050;2023-04-15T03:30:21;5.30;99.90
25188;DHT22;13141;50.414;8.050;2023-04-15T03:32:47;5.30;99.90
25188;DHT22;13141;50.414;8.050;2023-04-15T03:35:13;5.20;99.90
25188;DHT22;13141;50.414;8.050;2023-04-15T03:37:39;5.20;99.90
25188;DHT22;13141;50.414;8.050;2023-04-15T03:40:06;5.20;99.90
25188;DHT22;13141;50.414;8.050;2023-04-15T03:42:33;5.10;99.90
25188;DHT22;13141;50.414;8.050;2023-04-15T03:44:58;4.90;99.90
25188;DHT22;13141;50.414;8.050;2023-04-15T03:47:24;4.70;99.90
25188;DHT22;13141;50.414;8.050;2023-04-15T03:49:50;4.50;99.90
25188;DHT22;13141;50.414;8.050;2023-04-15T03:52:15;4.40;99.90
25188;DHT22;13141;50.414;8.050;2023-04-15T03:54:41;4.30;99.90
25188;DHT22;13141;50.414;8.050;2023-04-15T03:57:07;4.30;99.90
25188;DHT22;13141;50.414;8.050;2023-04-15T03:59:34;4.40;99.90
25188;DHT22;13141;50.414;8.050;2023-04-15T04:01:59;4.50;99.90
25188;DHT22;13141;50.414;8.050;2023-04-15T04:04:25;4.50;99.90
25188;DHT22;13141;50.414;8.050;2023-04-15T04:06:51;4.50;99.90
25188;DHT22;13141;50.414;8.050;2023-04-15T04:09:16;4.60;99.90
25188;DHT22;13141;50.414;8.050;2023-04-15T04:11:42;4.60;99.90
25188;DHT22;13141;50.414;8.050;2023-04-15T04:14:08;4.70;99.90
25188;DHT22;13141;50.414;8.050;2023-04-15T04:16:35;4.70;99.90
25188;DHT22;13141;50.414;8.050;2023-04-15T04:19:01;4.70;99.90
25188;DHT22;13141;50.414;8.050;2023-04-15T04:21:27;4.70;99.90
25188;DHT22;13141;50.414;8.050;2023-04-15T04:23:52;4.60;99.90
25188;DHT22;13141;50.414;8.050;2023-04-15T04:26:18;4.60;99.90
25188;DHT22;13141;50.414;8.050;2023-04-15T04:28:44;4.60;99.90
25188;DHT22;13141;50.414;8.050;2023-04-15T04:31:09;4.60;99.90
25188;DHT22;13141;50.414;8.050;2023-04-15T04:33:37;4.60;99.90
25188;DHT22;13141;50.414;8.050;2023-04-15T04:36:04;4.60;99.90
25188;DHT22;13141;50.414;8.050;2023-04-15T04:38:30;4.60;99.90
25188;DHT22;13141;50.414;8.050;2023-04-15T04:40:55;4.60;99.90
25188;DHT22;13141;50.414;8.050;2023-04-15T04:43:21;4.60;99.90
25188;DHT22;13141;50.414;8.050;2023-04-15T04:45:47;4.60;99.90
25188;DHT22;13141;50.414;8.050;2023-04-15T04:48:12;4.60;99.90
25188;DHT22;13141;50.414;8.050;2023-04-15T04:50:40;4.70;99.90
25188;DHT22;13141;50.414;8.050;2023-04-15T04:53:05;4.70;99.90
25188;DHT22;13141;50.414;8.050;2023-04-15T04:55:31;4.70;99.90
25188;DHT22;13141;50.414;8.050;2023-04-15T04:57:57;4.70;99.90
25188;DHT22;13141;50.414;8.050;2023-04-15T05:00:22;4.70;99.90
25188;DHT22;13141;50.414;8.050;2023-04-15T05:02:48;4.70;99.90
25188;DHT22;13141;50.414;8.050;2023-04-15T05:05:14;4.70;99.90
25188;DHT22;13141;50.414;8.050;2023-04-15T05:07:41;4.70;99.90
25188;DHT22;13141;50.414;8.050;2023-04-15T05:10:07;4.60;99.90
25188;DHT22;13141;50.414;8.050;2023-04-15T05:12:34;4.60;99.90
25188;DHT22;13141;50.414;8.050;2023-04-15T05:15:00;4.60;99.90
25188;DHT22;13141;50.414;8.050;2023-04-15T05:17:26;4.60;99.90
25188;DHT22;13141;50.414;8.050;2023-04-15T05:19:51;4.60;99.90
25188;DHT22;13141;50.414;8.050;2023-04-15T05:22:17;4.50;99.90
25188;DHT22;13141;50.414;8.050;2023-04-15T05:24:44;4.50;99.90
25188;DHT22;13141;50.414;8.050;2023-04-15T05:27:10;4.40;99.90
25188;DHT22;13141;50.414;8.050;2023-04-15T05:29:35;4.40;99.90
25188;DHT22;13141;50.414;8.050;2023-04-15T05:32:01;4.40;99.90
25188;DHT22;13141;50.414;8.050;2023-04-15T05:34:27;4.40;99.90
25188;DHT22;13141;50.414;8.050;2023-04-15T05:36:53;4.50;99.90
25188;DHT22;13141;50.414;8.050;2023-04-15T05:39:18;4.40;99.90
25188;DHT22;13141;50.414;8.050;2023-04-15T05:41:46;4.40;99.90
25188;DHT22;13141;50.414;8.050;2023-04-15T05:44:13;4.50;99.90
25188;DHT22;13141;50.414;8.050;2023-04-15T05:46:38;4.50;99.90
25188;DHT22;13141;50.414;8.050;2023-04-15T05:49:04;4.70;99.90
25188;DHT22;13141;50.414;8.050;2023-04-15T05:51:30;4.60;99.90
25188;DHT22;13141;50.414;8.050;2023-04-15T05:53:56;4.50;99.90
25188;DHT22;13141;50.414;8.050;2023-04-15T05:56:21;4.60;99.90
25188;DHT22;13141;50.414;8.050;2023-04-15T05:58:48;4.80;99.90
25188;DHT22;13141;50.414;8.050;2023-04-15T06:01:14;4.60;99.90
25188;DHT22;13141;50.414;8.050;2023-04-15T06:03:40;4.50;99.90
25188;DHT22;13141;50.414;8.050;2023-04-15T06:06:06;4.60;99.90
25188;DHT22;13141;50.414;8.050;2023-04-15T06:08:31;4.50;99.90
25188;DHT22;13141;50.414;8.050;2023-04-15T06:10:58;4.50;99.90
25188;DHT22;13141;50.414;8.050;2023-04-15T06:13:23;4.60;99.90
25188;DHT22;13141;50.414;8.050;2023-04-15T06:15:50;4.70;99.90
25188;DHT22;13141;50.414;8.050;2023-04-15T06:18:16;4.70;99.90
25188;DHT22;13141;50.414;8.050;2023-04-15T06:20:42;4.70;99.90
25188;DHT22;13141;50.414;8.050;2023-04-15T06:23:08;4.70;99.90
25188;DHT22;13141;50.414;8.050;2023-04-15T06:25:33;4.70;99.90
25188;DHT22;13141;50.414;8.050;2023-04-15T06:27:59;5.00;99.90
25188;DHT22;13141;50.414;8.050;2023-04-15T06:30:25;4.90;99.90
25188;DHT22;13141;50.414;8.050;2023-04-15T06:32:52;4.60;99.90
25188;DHT22;13141;50.414;8.050;2023-04-15T06:35:19;5.00;99.90
25188;DHT22;13141;50.414;8.050;2023-04-15T06:37:45;5.10;99.90
25188;DHT22;13141;50.414;8.050;2023-04-15T06:40:11;5.20;99.90
25188;DHT22;13141;50.414;8.050;2023-04-15T06:42:37;5.30;99.90
25188;DHT22;13141;50.414;8.050;2023-04-15T06:45:03;5.40;99.90
25188;DHT22;13141;50.414;8.050;2023-04-15T06:47:29;5.40;99.90
25188;DHT22;13141;50.414;8.050;2023-04-15T06:49:56;5.50;99.90
25188;DHT22;13141;50.414;8.050;2023-04-15T06:52:22;5.60;99.90
25188;DHT22;13141;50.414;8.050;2023-04-15T06:54:47;5.80;99.90
25188;DHT22;13141;50.414;8.050;2023-04-15T06:57:13;6.00;99.90
25188;DHT22;13141;50.414;8.050;2023-04-15T06:59:39;6.10;99.90
25188;DHT22;13141;50.414;8.050;2023-04-15T07:02:04;6.20;99.90
25188;DHT22;13141;50.414;8.050;2023-04-15T07:04:32;6.20;99.90
25188;DHT22;13141;50.414;8.050;2023-04-15T07:06:59;6.20;99.90
25188;DHT22;13141;50.414;8.050;2023-04-15T07:09:25;6.20;99.90
25188;DHT22;13141;50.414;8.050;2023-04-15T07:11:51;6.20;99.90
25188;DHT22;13141;50.414;8.050;2023-04-15T07:14:17;6.20;99.90
25188;DHT22;13141;50.414;8.050;2023-04-15T07:16:42;6.30;99.90
25188;DHT22;13141;50.414;8.050;2023-04-15T07:19:08;6.40;99.90
25188;DHT22;13141;50.414;8.050;2023-04-15T07:21:34;6.40;99.90
25188;DHT22;13141;50.414;8.050;2023-04-15T07:24:02;6.50;99.90
25188;DHT22;13141;50.414;8.050;2023-04-15T07:26:28;6.60;99.90
25188;DHT22;13141;50.414;8.050;2023-04-15T07:28:54;6.60;99.90
25188;DHT22;13141;50.414;8.050;2023-04-15T07:31:19;6.80;99.90
25188;DHT22;13141;50.414;8.050;2023-04-15T07:33:45;6.80;99.90
25188;DHT22;13141;50.414;8.050;2023-04-15T07:36:11;7.00;99.90
25188;DHT22;13141;50.414;8.050;2023-04-15T07:38:36;7.10;99.90
25188;DHT22;13141;50.414;8.050;2023-04-15T07:41:04;7.30;99.90
25188;DHT22;13141;50.414;8.050;2023-04-15T07:43:29;7.40;99.90
25188;DHT22;13141;50.414;8.050;2023-04-15T07:45:55;6.80;99.90
25188;DHT22;13141;50.414;8.050;2023-04-15T07:48:21;7.50;99.90
25188;DHT22;13141;50.414;8.050;2023-04-15T07:50:46;7.70;99.90
25188;DHT22;13141;50.414;8.050;2023-04-15T07:53:12;7.70;99.90
25188;DHT22;13141;50.414;8.050;2023-04-15T07:55:38;7.80;99.90
25188;DHT22;13141;50.414;8.050;2023-04-15T07:58:05;8.10;99.90
25188;DHT22;13141;50.414;8.050;2023-04-15T08:00:31;8.40;99.90
25188;DHT22;13141;50.414;8.050;2023-04-15T08:02:57;8.60;99.90
25188;DHT22;13141;50.414;8.050;2023-04-15T08:05:22;8.80;99.90
25188;DHT22;13141;50.414;8.050;2023-04-15T08:07:48;9.10;99.90
25188;DHT22;13141;50.414;8.050;2023-04-15T08:10:14;9.30;99.90
25188;DHT22;13141;50.414;8.050;2023-04-15T08:12:39;9.40;99.90
25188;DHT22;13141;50.414;8.050;2023-04-15T08:15:08;9.50;99.90
25188;DHT22;13141;50.414;8.050;2023-04-15T08:17:34;9.60;99.90
25188;DHT22;13141;50.414;8.050;2023-04-15T08:20:00;9.60;99.90
25188;DHT22;13141;50.414;8.050;2023-04-15T08:22:26;9.70;99.90
25188;DHT22;13141;50.414;8.050;2023-04-15T08:24:52;9.90;99.90
25188;DHT22;13141;50.414;8.050;2023-04-15T08:27:18;10.20;99.90
25188;DHT22;13141;50.414;8.050;2023-04-15T08:29:43;10.50;99.90
25188;DHT22;13141;50.414;8.050;2023-04-15T08:32:10;10.80;99.90
25188;DHT22;13141;50.414;8.050;2023-04-15T08:34:36;10.60;99.90
25188;DHT22;13141;50.414;8.050;2023-04-15T08:37:01;10.60;99.90
25188;DHT22;13141;50.414;8.050;2023-04-15T08:39:27;10.60;99.90
25188;DHT22;13141;50.414;8.050;2023-04-15T08:41:59;10.70;99.90
25188;DHT22;13141;50.414;8.050;2023-04-15T08:44:25;10.90;99.90
25188;DHT22;13141;50.414;8.050;2023-04-15T08:46:54;11.00;99.90
25188;DHT22;13141;50.414;8.050;2023-04-15T08:49:25;11.10;99.90
25188;DHT22;13141;50.414;8.050;2023-04-15T08:51:52;11.20;99.90
25188;DHT22;13141;50.414;8.050;2023-04-15T08:54:18;11.50;99.90
25188;DHT22;13141;50.414;8.050;2023-04-15T08:56:44;11.80;99.90
25188;DHT22;13141;50.414;8.050;2023-04-15T08:59:10;12.20;99.90
25188;DHT22;13141;50.414;8.050;2023-04-15T09:01:37;12.50;99.90
25188;DHT22;13141;50.414;8.050;2023-04-15T09:04:03;12.70;99.90
25188;DHT22;13141;50.414;8.050;2023-04-15T09:06:31;13.00;99.90
25188;DHT22;13141;50.414;8.050;2023-04-15T09:08:56;13.10;99.80
25188;DHT22;13141;50.414;8.050;2023-04-15T09:11:22;13.20;99.90
25188;DHT22;13141;50.414;8.050;2023-04-15T09:13:48;13.10;99.90
25188;DHT22;13141;50.414;8.050;2023-04-15T09:16:14;13.40;99.90
25188;DHT22;13141;50.414;8.050;2023-04-15T09:18:39;13.70;99.90
25188;DHT22;13141;50.414;8.050;2023-04-15T09:21:06;14.00;99.90
25188;DHT22;13141;50.414;8.050;2023-04-15T09:23:35;14.20;99.90
25188;DHT22;13141;50.414;8.050;2023-04-15T09:26:00;14.30;99.90
25188;DHT22;13141;50.414;8.050;2023-04-15T09:28:27;14.40;99.90
25188;DHT22;13141;50.414;8.050;2023-04-15T09:30:55;14.40;99.90
25188;DHT22;13141;50.414;8.050;2023-04-15T09:33:20;14.40;99.90
25188;DHT22;13141;50.414;8.050;2023-04-15T09:35:56;14.40;99.90
25188;DHT22;13141;50.414;8.050;2023-04-15T09:38:22;14.40;99.90
25188;DHT22;13141;50.414;8.050;2023-04-15T09:40:49;14.50;99.90
25188;DHT22;13141;50.414;8.050;2023-04-15T09:43:14;14.50;99.70
25188;DHT22;13141;50.414;8.050;2023-04-15T09:45:47;14.50;99.70
25188;DHT22;13141;50.414;8.050;2023-04-15T09:48:17;14.70;97.40
25188;DHT22;13141;50.414;8.050;2023-04-15T09:50:44;14.50;98.70
25188;DHT22;13141;50.414;8.050;2023-04-15T09:53:10;14.50;98.90
25188;DHT22;13141;50.414;8.050;2023-04-15T09:55:36;14.50;98.30
25188;DHT22;13141;50.414;8.050;2023-04-15T09:58:07;14.50;98.30
25188;DHT22;13141;50.414;8.050;2023-04-15T10:00:33;14.50;98.00
25188;DHT22;13141;50.414;8.050;2023-04-15T10:02:59;14.50;97.60
25188;DHT22;13141;50.414;8.050;2023-04-15T10:05:26;14.50;96.90
25188;DHT22;13141;50.414;8.050;2023-04-15T10:07:51;14.60;97.90
25188;DHT22;13141;50.414;8.050;2023-04-15T10:10:17;14.70;97.50
25188;DHT22;13141;50.414;8.050;2023-04-15T10:12:44;14.80;97.80
25188;DHT22;13141;50.414;8.050;2023-04-15T10:15:14;14.80;97.90
25188;DHT22;13141;50.414;8.050;2023-04-15T10:17:42;14.80;97.70
25188;DHT22;13141;50.414;8.050;2023-04-15T10:20:10;14.80;97.60
25188;DHT22;13141;50.414;8.050;2023-04-15T10:22:37;14.80;97.00
25188;DHT22;13141;50.414;8.050;2023-04-15T10:25:05;14.80;97.50
25188;DHT22;13141;50.414;8.050;2023-04-15T10:27:30;14.80;97.20
25188;DHT22;13141;50.414;8.050;2023-04-15T10:29:59;14.70;96.80
25188;DHT22;13141;50.414;8.050;2023-04-15T10:32:26;14.70;96.40
25188;DHT22;13141;50.414;8.050;2023-04-15T10:34:53;14.60;96.80
25188;DHT22;13141;50.414;8.050;2023-04-15T10:37:20;14.60;96.90
25188;DHT22;13141;50.414;8.050;2023-04-15T10:39:46;14.60;97.10
25188;DHT22;13141;50.414;8.050;2023-04-15T10:42:13;14.50;96.20
25188;DHT22;13141;50.414;8.050;2023-04-15T10:44:41;14.60;97.00
25188;DHT22;13141;50.414;8.050;2023-04-15T10:47:11;14.60;97.20
25188;DHT22;13141;50.414;8.050;2023-04-15T10:49:46;14.60;97.20
25188;DHT22;13141;50.414;8.050;2023-04-15T10:52:14;14.60;96.90
25188;DHT22;13141;50.414;8.050;2023-04-15T10:54:40;14.60;97.00
25188;DHT22;13141;50.414;8.050;2023-04-15T10:57:13;14.60;97.50
25188;DHT22;13141;50.414;8.050;2023-04-15T11:02:43;14.90;97.50
25188;DHT22;13141;50.414;8.050;2023-04-15T11:05:10;15.00;97.10
25188;DHT22;13141;50.414;8.050;2023-04-15T11:07:45;15.20;97.20
25188;DHT22;13141;50.414;8.050;2023-04-15T11:10:49;15.40;97.70
25188;DHT22;13141;50.414;8.050;2023-04-15T11:13:17;15.70;97.20
25188;DHT22;13141;50.414;8.050;2023-04-15T11:15:44;15.80;96.90
25188;DHT22;13141;50.414;8.050;2023-04-15T11:18:11;16.00;97.00
25188;DHT22;13141;50.414;8.050;2023-04-15T11:20:39;16.20;96.80
25188;DHT22;13141;50.414;8.050;2023-04-15T11:23:07;16.20;97.00
25188;DHT22;13141;50.414;8.050;2023-04-15T11:25:34;16.60;96.50
25188;DHT22;13141;50.414;8.050;2023-04-15T11:28:00;16.70;96.60
25188;DHT22;13141;50.414;8.050;2023-04-15T11:30:28;16.90;96.50
25188;DHT22;13141;50.414;8.050;2023-04-15T11:32:57;17.00;96.40
25188;DHT22;13141;50.414;8.050;2023-04-15T11:35:23;17.20;95.90
25188;DHT22;13141;50.414;8.050;2023-04-15T11:37:50;17.20;96.90
25188;DHT22;13141;50.414;8.050;2023-04-15T11:40:16;16.90;95.40
25188;DHT22;13141;50.414;8.050;2023-04-15T11:42:46;16.80;96.10
25188;DHT22;13141;50.414;8.050;2023-04-15T11:45:14;16.70;96.70
25188;DHT22;13141;50.414;8.050;2023-04-15T11:47:41;16.60;97.00
25188;DHT22;13141;50.414;8.050;2023-04-15T11:50:13;16.60;96.40
25188;DHT22;13141;50.414;8.050;2023-04-15T11:52:39;16.50;97.10
25188;DHT22;13141;50.414;8.050;2023-04-15T11:55:08;16.50;96.60
25188;DHT22;13141;50.414;8.050;2023-04-15T11:57:34;16.30;96.50
25188;DHT22;13141;50.414;8.050;2023-04-15T12:00:00;16.30;97.10
25188;DHT22;13141;50.414;8.050;2023-04-15T12:02:30;16.20;96.70
25188;DHT22;13141;50.414;8.050;2023-04-15T12:05:02;16.20;97.00
25188;DHT22;13141;50.414;8.050;2023-04-15T12:07:28;16.20;97.00
25188;DHT22;13141;50.414;8.050;2023-04-15T12:09:54;16.20;97.00
25188;DHT22;13141;50.414;8.050;2023-04-15T12:12:21;16.30;97.60
25188;DHT22;13141;50.414;8.050;2023-04-15T12:14:51;16.30;96.90
25188;DHT22;13141;50.414;8.050;2023-04-15T12:17:16;16.30;96.80
25188;DHT22;13141;50.414;8.050;2023-04-15T12:19:42;16.30;97.50
25188;DHT22;13141;50.414;8.050;2023-04-15T12:22:09;16.40;97.40
25188;DHT22;13141;50.414;8.050;2023-04-15T12:24:36;16.30;96.70
25188;DHT22;13141;50.414;8.050;2023-04-15T12:27:03;16.10;97.10
25188;DHT22;13141;50.414;8.050;2023-04-15T12:29:32;16.00;97.70
25188;DHT22;13141;50.414;8.050;2023-04-15T12:32:04;16.00;98.50
25188;DHT22;13141;50.414;8.050;2023-04-15T12:34:32;15.80;98.00
25188;DHT22;13141;50.414;8.050;2023-04-15T12:36:59;15.80;97.90
25188;DHT22;13141;50.414;8.050;2023-04-15T12:39:26;15.60;98.00
25188;DHT22;13141;50.414;8.050;2023-04-15T12:41:52;15.50;98.10
25188;DHT22;13141;50.414;8.050;2023-04-15T12:44:19;15.50;99.00
25188;DHT22;13141;50.414;8.050;2023-04-15T12:46:46;15.50;99.20
25188;DHT22;13141;50.414;8.050;2023-04-15T12:49:11;15.50;99.90
25188;DHT22;13141;50.414;8.050;2023-04-15T12:51:37;15.40;99.70
25188;DHT22;13141;50.414;8.050;2023-04-15T12:54:03;15.30;99.60
25188;DHT22;13141;50.414;8.050;2023-04-15T12:56:29;15.10;99.90
25188;DHT22;13141;50.414;8.050;2023-04-15T12:58:54;15.00;99.90
25188;DHT22;13141;50.414;8.050;2023-04-15T13:01:20;14.90;99.90
25188;DHT22;13141;50.414;8.050;2023-04-15T13:03:47;14.80;99.90
25188;DHT22;13141;50.414;8.050;2023-04-15T13:06:13;14.70;99.90
25188;DHT22;13141;50.414;8.050;2023-04-15T13:08:38;14.80;99.90
25188;DHT22;13141;50.414;8.050;2023-04-15T13:11:05;14.80;99.90
25188;DHT22;13141;50.414;8.050;2023-04-15T13:13:31;14.80;99.90
25188;DHT22;13141;50.414;8.050;2023-04-15T13:15:57;14.80;99.90
25188;DHT22;13141;50.414;8.050;2023-04-15T13:18:23;14.60;99.90
25188;DHT22;13141;50.414;8.050;2023-04-15T13:20:50;14.50;99.90
25188;DHT22;13141;50.414;8.050;2023-04-15T13:23:16;14.30;99.90
25188;DHT22;13141;50.414;8.050;2023-04-15T13:25:41;14.20;99.90
25188;DHT22;13141;50.414;8.050;2023-04-15T13:28:07;14.10;99.90
25188;DHT22;13141;50.414;8.050;2023-04-15T13:30:33;14.00;99.90
25188;DHT22;13141;50.414;8.050;2023-04-15T13:32:58;14.00;99.90
25188;DHT22;13141;50.414;8.050;2023-04-15T13:35:24;13.90;99.90
25188;DHT22;13141;50.414;8.050;2023-04-15T13:37:53;13.80;99.90
25188;DHT22;13141;50.414;8.050;2023-04-15T13:40:19;13.80;99.90
25188;DHT22;13141;50.414;8.050;2023-04-15T13:42:44;13.80;99.90
25188;DHT22;13141;50.414;8.050;2023-04-15T13:45:10;13.70;99.90
25188;DHT22;13141;50.414;8.050;2023-04-15T13:47:36;13.70;99.90
25188;DHT22;13141;50.414;8.050;2023-04-15T13:50:02;13.70;99.90
25188;DHT22;13141;50.414;8.050;2023-04-15T13:52:28;13.60;99.90
25188;DHT22;13141;50.414;8.050;2023-04-15T13:54:55;13.60;99.90
25188;DHT22;13141;50.414;8.050;2023-04-15T13:57:21;13.60;99.90
25188;DHT22;13141;50.414;8.050;2023-04-15T13:59:46;13.50;99.90
25188;DHT22;13141;50.414;8.050;2023-04-15T14:02:13;13.50;99.90
25188;DHT22;13141;50.414;8.050;2023-04-15T14:04:39;13.50;99.90
25188;DHT22;13141;50.414;8.050;2023-04-15T14:07:04;13.50;99.90
25188;DHT22;13141;50.414;8.050;2023-04-15T14:09:30;13.50;99.90
25188;DHT22;13141;50.414;8.050;2023-04-15T14:11:57;13.50;99.90
25188;DHT22;13141;50.414;8.050;2023-04-15T14:14:23;13.50;99.90
25188;DHT22;13141;50.414;8.050;2023-04-15T14:16:48;13.50;99.90
25188;DHT22;13141;50.414;8.050;2023-04-15T14:19:14;13.40;99.90
25188;DHT22;13141;50.414;8.050;2023-04-15T14:21:40;13.50;99.90
25188;DHT22;13141;50.414;8.050;2023-04-15T14:24:06;13.00;99.90
25188;DHT22;13141;50.414;8.050;2023-04-15T14:26:32;13.30;99.90
25188;DHT22;13141;50.414;8.050;2023-04-15T14:28:58;13.20;99.90
25188;DHT22;13141;50.414;8.050;2023-04-15T14:31:24;13.00;99.90
25188;DHT22;13141;50.414;8.050;2023-04-15T14:33:50;12.90;99.90
25188;DHT22;13141;50.414;8.050;2023-04-15T14:36:15;12.90;99.90
25188;DHT22;13141;50.414;8.050;2023-04-15T14:38:41;13.00;99.90
25188;DHT22;13141;50.414;8.050;2023-04-15T14:41:07;12.90;99.90
25188;DHT22;13141;50.414;8.050;2023-04-15T14:43:33;12.90;99.90
25188;DHT22;13141;50.414;8.050;2023-04-15T14:46:00;12.80;99.90
25188;DHT22;13141;50.414;8.050;2023-04-15T14:48:26;12.70;99.90
25188;DHT22;13141;50.414;8.050;2023-04-15T14:50:52;12.60;99.90
25188;DHT22;13141;50.414;8.050;2023-04-15T14:53:18;12.80;99.90
25188;DHT22;13141;50.414;8.050;2023-04-15T14:55:43;12.80;99.90
25188;DHT22;13141;50.414;8.050;2023-04-15T14:58:09;12.90;99.90
25188;DHT22;13141;50.414;8.050;2023-04-15T15:00:35;12.90;99.90
25188;DHT22;13141;50.414;8.050;2023-04-15T15:03:02;12.80;99.90
25188;DHT22;13141;50.414;8.050;2023-04-15T15:05:28;12.80;99.90
25188;DHT22;13141;50.414;8.050;2023-04-15T15:07:54;12.90;99.90
25188;DHT22;13141;50.414;8.050;2023-04-15T15:10:20;12.80;99.90
25188;DHT22;13141;50.414;8.050;2023-04-15T15:12:45;12.80;99.90
25188;DHT22;13141;50.414;8.050;2023-04-15T15:15:11;12.70;99.90
25188;DHT22;13141;50.414;8.050;2023-04-15T15:17:37;12.70;99.90
25188;DHT22;13141;50.414;8.050;2023-04-15T15:20:05;12.60;99.90
25188;DHT22;13141;50.414;8.050;2023-04-15T15:22:30;12.50;99.90
25188;DHT22;13141;50.414;8.050;2023-04-15T15:24:56;12.50;99.90
25188;DHT22;13141;50.414;8.050;2023-04-15T15:27:22;12.50;99.90
25188;DHT22;13141;50.414;8.050;2023-04-15T15:29:48;12.40;99.90
25188;DHT22;13141;50.414;8.050;2023-04-15T15:32:13;12.40;99.90
25188;DHT22;13141;50.414;8.050;2023-04-15T15:34:39;12.40;99.90
25188;DHT22;13141;50.414;8.050;2023-04-15T15:37:06;12.30;99.90